sensor_id;sensor_type;location;lat;lon;timestamp;P1;durP1;ratioP1;P2;durP2;ratioP2
18780;SDS011;9519;51.890;8.970;2022-10-31T00:04:55;13.50;;;7.13;;
18780;SDS011;9519;51.890;8.970;2022-10-31T00:09:57;17.87;;;7.93;;
18780;SDS011;9519;51.890;8.970;2022-10-31T00:14:59;17.53;;;8.50;;
18780;SDS011;9519;51.890;8.970;2022-10-31T00:20:03;18.07;;;9.20;;
18780;SDS011;9519;51.890;8.970;2022-10-31T00:25:06;21.83;;;16.00;;
18780;SDS011;9519;51.890;8.970;2022-10-31T00:30:09;30.33;;;16.37;;
18780;SDS011;9519;51.890;8.970;2022-10-31T00:35:13;22.57;;;13.20;;
18780;SDS011;9519;51.890;8.970;2022-10-31T00:40:16;20.40;;;10.10;;
18780;SDS011;9519;51.890;8.970;2022-10-31T00:45:18;21.93;;;10.57;;
18780;SDS011;9519;51.890;8.970;2022-10-31T00:50:24;18.50;;;10.20;;
18780;SDS011;9519;51.890;8.970;2022-10-31T00:55:27;19.50;;;13.23;;
18780;SDS011;9519;51.890;8.970;2022-10-31T01:00:29;19.97;;;11.53;;
18780;SDS011;9519;51.890;8.970;2022-10-31T01:05:32;24.40;;;11.90;;
18780;SDS011;9519;51.890;8.970;2022-10-31T01:10:34;25.97;;;13.73;;
18780;SDS011;9519;51.890;8.970;2022-10-31T01:15:39;27.03;;;13.60;;
18780;SDS011;9519;51.890;8.970;2022-10-31T01:20:42;23.67;;;12.67;;
18780;SDS011;9519;51.890;8.970;2022-10-31T01:25:44;27.23;;;14.10;;
18780;SDS011;9519;51.890;8.970;2022-10-31T01:30:46;23.07;;;13.33;;
18780;SDS011;9519;51.890;8.970;2022-10-31T01:35:50;26.93;;;13.50;;
18780;SDS011;9519;51.890;8.970;2022-10-31T01:40:52;21.60;;;12.80;;
18780;SDS011;9519;51.890;8.970;2022-10-31T01:45:54;24.47;;;14.03;;
18780;SDS011;9519;51.890;8.970;2022-10-31T01:50:58;24.07;;;14.43;;
18780;SDS011;9519;51.890;8.970;2022-10-31T01:56:00;21.13;;;13.57;;
18780;SDS011;9519;51.890;8.970;2022-10-31T02:01:03;26.50;;;14.60;;
18780;SDS011;9519;51.890;8.970;2022-10-31T02:06:08;32.23;;;16.50;;
18780;SDS011;9519;51.890;8.970;2022-10-31T02:11:24;29.57;;;16.20;;
18780;SDS011;9519;51.890;8.970;2022-10-31T02:16:29;25.47;;;14.37;;
18780;SDS011;9519;51.890;8.970;2022-10-31T02:21:39;22.17;;;13.77;;
18780;SDS011;9519;51.890;8.970;2022-10-31T02:26:52;26.60;;;14.03;;
18780;SDS011;9519;51.890;8.970;2022-10-31T02:32:09;25.57;;;13.13;;
18780;SDS011;9519;51.890;8.970;2022-10-31T02:37:22;34.43;;;15.17;;
18780;SDS011;9519;51.890;8.970;2022-10-31T02:42:36;35.00;;;19.77;;
18780;SDS011;9519;51.890;8.970;2022-10-31T02:47:54;33.83;;;19.27;;
18780;SDS011;9519;51.890;8.970;2022-10-31T02:53:01;31.10;;;18.20;;
18780;SDS011;9519;51.890;8.970;2022-10-31T02:58:04;31.77;;;18.47;;
18780;SDS011;9519;51.890;8.970;2022-10-31T03:03:14;29.93;;;18.33;;
18780;SDS011;9519;51.890;8.970;2022-10-31T03:08:27;30.30;;;17.77;;
18780;SDS011;9519;51.890;8.970;2022-10-31T03:13:39;33.63;;;20.17;;
18780;SDS011;9519;51.890;8.970;2022-10-31T03:18:55;40.30;;;22.50;;
18780;SDS011;9519;51.890;8.970;2022-10-31T03:24:05;36.90;;;23.23;;
18780;SDS011;9519;51.890;8.970;2022-10-31T03:29:11;42.20;;;25.73;;
18780;SDS011;9519;51.890;8.970;2022-10-31T03:34:20;40.17;;;24.63;;
18780;SDS011;9519;51.890;8.970;2022-10-31T03:39:22;38.30;;;23.60;;
18780;SDS011;9519;51.890;8.970;2022-10-31T03:44:25;36.37;;;19.97;;
18780;SDS011;9519;51.890;8.970;2022-10-31T03:49:32;33.30;;;19.53;;
18780;SDS011;9519;51.890;8.970;2022-10-31T03:54:36;32.87;;;20.20;;
18780;SDS011;9519;51.890;8.970;2022-10-31T03:59:45;31.20;;;20.97;;
18780;SDS011;9519;51.890;8.970;2022-10-31T04:04:55;35.07;;;21.03;;
18780;SDS011;9519;51.890;8.970;2022-10-31T04:09:59;34.87;;;22.60;;
18780;SDS011;9519;51.890;8.970;2022-10-31T04:15:07;33.13;;;20.83;;
18780;SDS011;9519;51.890;8.970;2022-10-31T04:20:18;36.07;;;21.77;;
18780;SDS011;9519;51.890;8.970;2022-10-31T04:25:31;41.07;;;23.03;;
18780;SDS011;9519;51.890;8.970;2022-10-31T04:30:33;42.27;;;24.93;;
18780;SDS011;9519;51.890;8.970;2022-10-31T04:35:36;42.47;;;24.40;;
18780;SDS011;9519;51.890;8.970;2022-10-31T04:40:38;35.57;;;24.07;;
18780;SDS011;9519;51.890;8.970;2022-10-31T04:45:40;36.40;;;22.37;;
18780;SDS011;9519;51.890;8.970;2022-10-31T04:50:44;39.07;;;24.10;;
18780;SDS011;9519;51.890;8.970;2022-10-31T04:55:46;37.67;;;22.23;;
18780;SDS011;9519;51.890;8.970;2022-10-31T05:00:50;39.83;;;21.40;;
18780;SDS011;9519;51.890;8.970;2022-10-31T05:05:55;37.47;;;21.77;;
18780;SDS011;9519;51.890;8.970;2022-10-31T05:10:59;37.33;;;22.03;;
18780;SDS011;9519;51.890;8.970;2022-10-31T05:16:01;44.07;;;22.77;;
18780;SDS011;9519;51.890;8.970;2022-10-31T05:21:05;38.50;;;23.70;;
18780;SDS011;9519;51.890;8.970;2022-10-31T05:26:07;35.07;;;21.73;;
18780;SDS011;9519;51.890;8.970;2022-10-31T05:31:09;34.07;;;21.07;;
18780;SDS011;9519;51.890;8.970;2022-10-31T05:36:13;34.77;;;20.07;;
18780;SDS011;9519;51.890;8.970;2022-10-31T05:41:15;32.87;;;19.83;;
18780;SDS011;9519;51.890;8.970;2022-10-31T05:46:17;44.17;;;23.90;;
18780;SDS011;9519;51.890;8.970;2022-10-31T05:51:20;38.80;;;21.33;;
18780;SDS011;9519;51.890;8.970;2022-10-31T05:56:22;37.83;;;22.17;;
18780;SDS011;9519;51.890;8.970;2022-10-31T06:01:25;43.27;;;23.97;;
18780;SDS011;9519;51.890;8.970;2022-10-31T06:06:28;50.20;;;27.10;;
18780;SDS011;9519;51.890;8.970;2022-10-31T06:11:30;42.33;;;24.03;;
18780;SDS011;9519;51.890;8.970;2022-10-31T06:16:33;40.07;;;21.47;;
18780;SDS011;9519;51.890;8.970;2022-10-31T06:21:37;35.27;;;20.53;;
18780;SDS011;9519;51.890;8.970;2022-10-31T06:26:39;33.67;;;20.83;;
18780;SDS011;9519;51.890;8.970;2022-10-31T06:31:41;38.23;;;23.47;;
18780;SDS011;9519;51.890;8.970;2022-10-31T06:36:46;30.23;;;19.73;;
18780;SDS011;9519;51.890;8.970;2022-10-31T06:41:49;39.03;;;22.50;;
18780;SDS011;9519;51.890;8.970;2022-10-31T06:46:51;34.57;;;21.20;;
18780;SDS011;9519;51.890;8.970;2022-10-31T06:51:54;33.80;;;19.90;;
18780;SDS011;9519;51.890;8.970;2022-10-31T06:56:56;35.27;;;21.80;;
18780;SDS011;9519;51.890;8.970;2022-10-31T07:01:58;33.80;;;20.87;;
18780;SDS011;9519;51.890;8.970;2022-10-31T07:07:02;33.63;;;20.40;;
18780;SDS011;9519;51.890;8.970;2022-10-31T07:12:04;36.93;;;21.20;;
18780;SDS011;9519;51.890;8.970;2022-10-31T07:17:07;34.53;;;20.70;;
18780;SDS011;9519;51.890;8.970;2022-10-31T07:22:11;36.83;;;21.13;;
18780;SDS011;9519;51.890;8.970;2022-10-31T07:27:13;37.47;;;20.37;;
18780;SDS011;9519;51.890;8.970;2022-10-31T07:32:16;31.00;;;19.27;;
18780;SDS011;9519;51.890;8.970;2022-10-31T07:37:20;36.03;;;20.87;;
18780;SDS011;9519;51.890;8.970;2022-10-31T07:42:22;37.53;;;20.87;;
18780;SDS011;9519;51.890;8.970;2022-10-31T07:47:24;34.53;;;21.83;;
18780;SDS011;9519;51.890;8.970;2022-10-31T07:52:28;36.53;;;21.33;;
18780;SDS011;9519;51.890;8.970;2022-10-31T07:57:30;29.70;;;18.87;;
18780;SDS011;9519;51.890;8.970;2022-10-31T08:02:32;29.00;;;20.37;;
18780;SDS011;9519;51.890;8.970;2022-10-31T08:07:36;32.73;;;20.40;;
18780;SDS011;9519;51.890;8.970;2022-10-31T08:12:38;40.13;;;22.13;;
18780;SDS011;9519;51.890;8.970;2022-10-31T08:17:40;35.07;;;23.30;;
18780;SDS011;9519;51.890;8.970;2022-10-31T08:22:51;46.33;;;25.47;;
18780;SDS011;9519;51.890;8.970;2022-10-31T08:27:58;41.77;;;23.07;;
18780;SDS011;9519;51.890;8.970;2022-10-31T08:33:01;38.83;;;24.13;;
18780;SDS011;9519;51.890;8.970;2022-10-31T08:38:07;31.20;;;20.80;;
18780;SDS011;9519;51.890;8.970;2022-10-31T08:43:11;35.67;;;20.97;;
18780;SDS011;9519;51.890;8.970;2022-10-31T08:48:15;37.63;;;21.93;;
18780;SDS011;9519;51.890;8.970;2022-10-31T08:53:19;35.03;;;21.20;;
18780;SDS011;9519;51.890;8.970;2022-10-31T08:58:23;29.07;;;20.03;;
18780;SDS011;9519;51.890;8.970;2022-10-31T09:03:26;34.10;;;20.20;;
18780;SDS011;9519;51.890;8.970;2022-10-31T09:08:32;35.43;;;22.00;;
18780;SDS011;9519;51.890;8.970;2022-10-31T09:13:34;37.77;;;22.40;;
18780;SDS011;9519;51.890;8.970;2022-10-31T09:18:36;35.37;;;23.77;;
18780;SDS011;9519;51.890;8.970;2022-10-31T09:23:40;38.47;;;23.73;;
18780;SDS011;9519;51.890;8.970;2022-10-31T09:28:42;42.63;;;23.70;;
18780;SDS011;9519;51.890;8.970;2022-10-31T09:33:46;35.03;;;23.07;;
18780;SDS011;9519;51.890;8.970;2022-10-31T09:38:50;45.10;;;26.10;;
18780;SDS011;9519;51.890;8.970;2022-10-31T09:43:55;47.13;;;28.20;;
18780;SDS011;9519;51.890;8.970;2022-10-31T09:49:12;48.50;;;29.17;;
18780;SDS011;9519;51.890;8.970;2022-10-31T09:54:35;48.30;;;29.90;;
18780;SDS011;9519;51.890;8.970;2022-10-31T09:59:43;42.33;;;27.57;;
18780;SDS011;9519;51.890;8.970;2022-10-31T10:04:51;45.83;;;26.13;;
18780;SDS011;9519;51.890;8.970;2022-10-31T10:10:00;38.50;;;25.57;;
18780;SDS011;9519;51.890;8.970;2022-10-31T10:15:22;37.97;;;23.90;;
18780;SDS011;9519;51.890;8.970;2022-10-31T10:20:38;36.50;;;22.50;;
18780;SDS011;9519;51.890;8.970;2022-10-31T10:25:59;36.77;;;24.10;;
18780;SDS011;9519;51.890;8.970;2022-10-31T10:31:13;39.93;;;24.47;;
18780;SDS011;9519;51.890;8.970;2022-10-31T10:36:20;35.27;;;22.37;;
18780;SDS011;9519;51.890;8.970;2022-10-31T10:41:32;51.40;;;29.02;;
18780;SDS011;9519;51.890;8.970;2022-10-31T10:46:38;30.93;;;19.50;;
18780;SDS011;9519;51.890;8.970;2022-10-31T10:52:03;33.23;;;21.63;;
18780;SDS011;9519;51.890;8.970;2022-10-31T10:57:26;30.98;;;20.15;;
18780;SDS011;9519;51.890;8.970;2022-10-31T11:02:43;31.90;;;19.27;;
18780;SDS011;9519;51.890;8.970;2022-10-31T11:07:46;31.55;;;18.40;;
18780;SDS011;9519;51.890;8.970;2022-10-31T11:12:58;35.45;;;20.75;;
18780;SDS011;9519;51.890;8.970;2022-10-31T11:18:12;27.17;;;16.70;;
18780;SDS011;9519;51.890;8.970;2022-10-31T11:23:23;28.92;;;16.92;;
18780;SDS011;9519;51.890;8.970;2022-10-31T11:28:29;25.30;;;16.02;;
18780;SDS011;9519;51.890;8.970;2022-10-31T11:33:36;28.05;;;16.27;;
18780;SDS011;9519;51.890;8.970;2022-10-31T11:38:46;27.52;;;17.20;;
18780;SDS011;9519;51.890;8.970;2022-10-31T11:43:51;17.73;;;12.50;;
18780;SDS011;9519;51.890;8.970;2022-10-31T11:48:57;31.65;;;17.02;;
18780;SDS011;9519;51.890;8.970;2022-10-31T11:54:00;27.40;;;15.77;;
18780;SDS011;9519;51.890;8.970;2022-10-31T11:59:14;19.30;;;12.23;;
18780;SDS011;9519;51.890;8.970;2022-10-31T12:04:24;38.38;;;17.48;;
18780;SDS011;9519;51.890;8.970;2022-10-31T12:09:45;25.50;;;12.68;;
18780;SDS011;9519;51.890;8.970;2022-10-31T12:14:51;19.40;;;10.75;;
18780;SDS011;9519;51.890;8.970;2022-10-31T12:20:07;15.45;;;8.27;;
18780;SDS011;9519;51.890;8.970;2022-10-31T12:25:25;15.75;;;8.57;;
18780;SDS011;9519;51.890;8.970;2022-10-31T12:30:44;11.50;;;7.65;;
18780;SDS011;9519;51.890;8.970;2022-10-31T12:36:09;13.55;;;8.20;;
18780;SDS011;9519;51.890;8.970;2022-10-31T12:41:44;15.18;;;8.48;;
18780;SDS011;9519;51.890;8.970;2022-10-31T12:47:00;12.18;;;8.40;;
18780;SDS011;9519;51.890;8.970;2022-10-31T12:52:36;16.23;;;8.40;;
18780;SDS011;9519;51.890;8.970;2022-10-31T12:57:58;12.40;;;8.43;;
18780;SDS011;9519;51.890;8.970;2022-10-31T13:03:12;14.15;;;8.57;;
18780;SDS011;9519;51.890;8.970;2022-10-31T13:08:28;18.15;;;8.88;;
18780;SDS011;9519;51.890;8.970;2022-10-31T13:13:41;25.73;;;13.20;;
18780;SDS011;9519;51.890;8.970;2022-10-31T13:18:54;13.98;;;9.73;;
18780;SDS011;9519;51.890;8.970;2022-10-31T13:24:02;14.05;;;10.32;;
18780;SDS011;9519;51.890;8.970;2022-10-31T13:29:14;18.33;;;10.52;;
18780;SDS011;9519;51.890;8.970;2022-10-31T13:34:28;18.92;;;10.00;;
18780;SDS011;9519;51.890;8.970;2022-10-31T13:39:41;13.43;;;9.25;;
18780;SDS011;9519;51.890;8.970;2022-10-31T13:45:11;13.75;;;10.18;;
18780;SDS011;9519;51.890;8.970;2022-10-31T13:50:21;21.00;;;10.68;;
18780;SDS011;9519;51.890;8.970;2022-10-31T13:55:34;15.27;;;9.45;;
18780;SDS011;9519;51.890;8.970;2022-10-31T14:00:41;23.05;;;13.45;;
18780;SDS011;9519;51.890;8.970;2022-10-31T14:05:51;15.00;;;8.85;;
18780;SDS011;9519;51.890;8.970;2022-10-31T14:10:55;19.20;;;10.13;;
18780;SDS011;9519;51.890;8.970;2022-10-31T14:15:58;15.65;;;10.00;;
18780;SDS011;9519;51.890;8.970;2022-10-31T14:21:14;18.77;;;12.60;;
18780;SDS011;9519;51.890;8.970;2022-10-31T14:26:35;12.73;;;8.77;;
18780;SDS011;9519;51.890;8.970;2022-10-31T14:31:38;21.50;;;9.93;;
18780;SDS011;9519;51.890;8.970;2022-10-31T14:36:47;16.85;;;10.55;;
18780;SDS011;9519;51.890;8.970;2022-10-31T14:42:10;14.73;;;9.80;;
18780;SDS011;9519;51.890;8.970;2022-10-31T14:47:34;15.35;;;10.10;;
18780;SDS011;9519;51.890;8.970;2022-10-31T14:52:47;14.88;;;9.32;;
18780;SDS011;9519;51.890;8.970;2022-10-31T14:57:54;14.98;;;10.15;;
18780;SDS011;9519;51.890;8.970;2022-10-31T15:03:05;20.42;;;11.20;;
18780;SDS011;9519;51.890;8.970;2022-10-31T15:08:34;17.65;;;11.13;;
18780;SDS011;9519;51.890;8.970;2022-10-31T15:13:46;19.65;;;10.50;;
18780;SDS011;9519;51.890;8.970;2022-10-31T15:18:53;16.00;;;9.65;;
18780;SDS011;9519;51.890;8.970;2022-10-31T15:24:02;18.85;;;10.32;;
18780;SDS011;9519;51.890;8.970;2022-10-31T15:29:05;16.60;;;10.73;;
18780;SDS011;9519;51.890;8.970;2022-10-31T15:34:15;20.60;;;11.43;;
18780;SDS011;9519;51.890;8.970;2022-10-31T15:39:25;21.98;;;11.63;;
18780;SDS011;9519;51.890;8.970;2022-10-31T15:44:28;17.25;;;10.23;;
18780;SDS011;9519;51.890;8.970;2022-10-31T15:49:35;25.20;;;14.27;;
18780;SDS011;9519;51.890;8.970;2022-10-31T15:54:47;32.03;;;16.20;;
18780;SDS011;9519;51.890;8.970;2022-10-31T15:59:52;23.10;;;13.30;;
18780;SDS011;9519;51.890;8.970;2022-10-31T16:04:56;23.08;;;13.35;;
18780;SDS011;9519;51.890;8.970;2022-10-31T16:10:03;47.50;;;21.17;;
18780;SDS011;9519;51.890;8.970;2022-10-31T16:15:12;18.67;;;12.70;;
18780;SDS011;9519;51.890;8.970;2022-10-31T16:20:18;20.40;;;13.20;;
18780;SDS011;9519;51.890;8.970;2022-10-31T16:25:25;21.60;;;12.52;;
18780;SDS011;9519;51.890;8.970;2022-10-31T16:30:35;21.83;;;14.55;;
18780;SDS011;9519;51.890;8.970;2022-10-31T16:35:39;22.15;;;13.48;;
18780;SDS011;9519;51.890;8.970;2022-10-31T16:40:43;21.52;;;13.55;;
18780;SDS011;9519;51.890;8.970;2022-10-31T16:45:47;20.63;;;14.48;;
18780;SDS011;9519;51.890;8.970;2022-10-31T16:50:52;23.92;;;13.93;;
18780;SDS011;9519;51.890;8.970;2022-10-31T16:55:58;25.08;;;15.18;;
18780;SDS011;9519;51.890;8.970;2022-10-31T17:01:04;21.52;;;15.07;;
18780;SDS011;9519;51.890;8.970;2022-10-31T17:06:08;25.17;;;15.32;;
18780;SDS011;9519;51.890;8.970;2022-10-31T17:11:15;22.98;;;14.73;;
18780;SDS011;9519;51.890;8.970;2022-10-31T17:16:21;27.98;;;16.23;;
18780;SDS011;9519;51.890;8.970;2022-10-31T17:21:24;25.33;;;16.33;;
18780;SDS011;9519;51.890;8.970;2022-10-31T17:26:28;29.97;;;18.37;;
18780;SDS011;9519;51.890;8.970;2022-10-31T17:31:32;27.25;;;17.23;;
18780;SDS011;9519;51.890;8.970;2022-10-31T17:36:38;27.30;;;17.27;;
18780;SDS011;9519;51.890;8.970;2022-10-31T17:41:41;29.83;;;16.95;;
18780;SDS011;9519;51.890;8.970;2022-10-31T17:46:44;28.70;;;18.13;;
18780;SDS011;9519;51.890;8.970;2022-10-31T17:51:46;27.98;;;16.77;;
18780;SDS011;9519;51.890;8.970;2022-10-31T17:56:51;26.90;;;18.53;;
18780;SDS011;9519;51.890;8.970;2022-10-31T18:01:54;33.55;;;19.63;;
18780;SDS011;9519;51.890;8.970;2022-10-31T18:06:57;36.50;;;20.67;;
18780;SDS011;9519;51.890;8.970;2022-10-31T18:12:00;33.50;;;18.42;;
18780;SDS011;9519;51.890;8.970;2022-10-31T18:17:03;37.22;;;20.70;;
18780;SDS011;9519;51.890;8.970;2022-10-31T18:22:05;34.08;;;18.00;;
18780;SDS011;9519;51.890;8.970;2022-10-31T18:27:09;39.53;;;19.83;;
18780;SDS011;9519;51.890;8.970;2022-10-31T18:32:11;40.42;;;18.90;;
18780;SDS011;9519;51.890;8.970;2022-10-31T18:37:13;30.75;;;16.77;;
18780;SDS011;9519;51.890;8.970;2022-10-31T18:42:17;30.92;;;16.75;;
18780;SDS011;9519;51.890;8.970;2022-10-31T18:47:19;30.30;;;17.98;;
18780;SDS011;9519;51.890;8.970;2022-10-31T18:52:21;33.50;;;18.90;;
18780;SDS011;9519;51.890;8.970;2022-10-31T18:57:28;31.33;;;15.85;;
18780;SDS011;9519;51.890;8.970;2022-10-31T19:02:30;27.43;;;15.40;;
18780;SDS011;9519;51.890;8.970;2022-10-31T19:07:32;26.65;;;15.30;;
18780;SDS011;9519;51.890;8.970;2022-10-31T19:12:36;26.35;;;14.57;;
18780;SDS011;9519;51.890;8.970;2022-10-31T19:17:38;23.10;;;14.50;;
18780;SDS011;9519;51.890;8.970;2022-10-31T19:22:40;28.33;;;15.60;;
18780;SDS011;9519;51.890;8.970;2022-10-31T19:27:44;21.92;;;15.45;;
18780;SDS011;9519;51.890;8.970;2022-10-31T19:32:46;24.17;;;15.45;;
18780;SDS011;9519;51.890;8.970;2022-10-31T19:37:48;25.08;;;15.10;;
18780;SDS011;9519;51.890;8.970;2022-10-31T19:42:52;29.60;;;15.35;;
18780;SDS011;9519;51.890;8.970;2022-10-31T19:47:54;18.85;;;12.40;;
18780;SDS011;9519;51.890;8.970;2022-10-31T19:52:56;29.90;;;14.68;;
18780;SDS011;9519;51.890;8.970;2022-10-31T19:58:00;25.25;;;14.15;;
18780;SDS011;9519;51.890;8.970;2022-10-31T20:03:02;21.35;;;13.55;;
18780;SDS011;9519;51.890;8.970;2022-10-31T20:08:04;25.30;;;13.63;;
18780;SDS011;9519;51.890;8.970;2022-10-31T20:13:08;25.63;;;13.65;;
18780;SDS011;9519;51.890;8.970;2022-10-31T20:18:11;20.53;;;12.90;;
18780;SDS011;9519;51.890;8.970;2022-10-31T20:23:13;27.30;;;15.13;;
18780;SDS011;9519;51.890;8.970;2022-10-31T20:28:17;19.75;;;11.90;;
18780;SDS011;9519;51.890;8.970;2022-10-31T20:33:19;25.20;;;12.13;;
18780;SDS011;9519;51.890;8.970;2022-10-31T20:38:21;19.92;;;10.45;;
18780;SDS011;9519;51.890;8.970;2022-10-31T20:43:25;23.90;;;11.23;;
18780;SDS011;9519;51.890;8.970;2022-10-31T20:48:27;20.30;;;10.57;;
18780;SDS011;9519;51.890;8.970;2022-10-31T20:53:30;21.13;;;10.70;;
18780;SDS011;9519;51.890;8.970;2022-10-31T20:58:34;26.53;;;13.67;;
18780;SDS011;9519;51.890;8.970;2022-10-31T21:03:38;27.60;;;13.10;;
18780;SDS011;9519;51.890;8.970;2022-10-31T21:08:40;15.97;;;10.00;;
18780;SDS011;9519;51.890;8.970;2022-10-31T21:13:45;20.20;;;10.17;;
18780;SDS011;9519;51.890;8.970;2022-10-31T21:18:48;15.80;;;8.60;;
18780;SDS011;9519;51.890;8.970;2022-10-31T21:23:52;15.00;;;8.33;;
18780;SDS011;9519;51.890;8.970;2022-10-31T21:28:57;16.10;;;9.40;;
18780;SDS011;9519;51.890;8.970;2022-10-31T21:34:00;18.27;;;9.33;;
18780;SDS011;9519;51.890;8.970;2022-10-31T21:39:03;18.57;;;10.23;;
18780;SDS011;9519;51.890;8.970;2022-10-31T21:44:09;21.40;;;11.73;;
18780;SDS011;9519;51.890;8.970;2022-10-31T21:49:11;19.53;;;11.97;;
18780;SDS011;9519;51.890;8.970;2022-10-31T21:54:13;17.83;;;9.87;;
18780;SDS011;9519;51.890;8.970;2022-10-31T21:59:29;19.40;;;9.70;;
18780;SDS011;9519;51.890;8.970;2022-10-31T22:04:32;19.00;;;10.47;;
18780;SDS011;9519;51.890;8.970;2022-10-31T22:09:34;18.07;;;10.43;;
18780;SDS011;9519;51.890;8.970;2022-10-31T22:14:39;21.23;;;10.60;;
18780;SDS011;9519;51.890;8.970;2022-10-31T22:19:42;19.87;;;10.90;;
18780;SDS011;9519;51.890;8.970;2022-10-31T22:24:44;23.13;;;11.87;;
18780;SDS011;9519;51.890;8.970;2022-10-31T22:29:48;25.37;;;11.13;;
18780;SDS011;9519;51.890;8.970;2022-10-31T22:34:50;19.43;;;12.13;;
18780;SDS011;9519;51.890;8.970;2022-10-31T22:39:52;22.43;;;12.37;;
18780;SDS011;9519;51.890;8.970;2022-10-31T22:44:55;24.57;;;12.10;;
18780;SDS011;9519;51.890;8.970;2022-10-31T22:50:00;18.50;;;11.83;;
18780;SDS011;9519;51.890;8.970;2022-10-31T22:55:02;21.07;;;12.40;;
18780;SDS011;9519;51.890;8.970;2022-10-31T23:00:08;20.50;;;12.37;;
18780;SDS011;9519;51.890;8.970;2022-10-31T23:05:11;19.20;;;11.83;;
18780;SDS011;9519;51.890;8.970;2022-10-31T23:10:14;22.43;;;12.83;;
18780;SDS011;9519;51.890;8.970;2022-10-31T23:15:17;21.50;;;12.63;;
18780;SDS011;9519;51.890;8.970;2022-10-31T23:20:19;18.90;;;11.60;;
18780;SDS011;9519;51.890;8.970;2022-10-31T23:25:21;20.17;;;11.37;;
18780;SDS011;9519;51.890;8.970;2022-10-31T23:30:42;25.97;;;11.93;;
18780;SDS011;9519;51.890;8.970;2022-10-31T23:35:46;25.43;;;11.93;;
18780;SDS011;9519;51.890;8.970;2022-10-31T23:40:48;20.27;;;11.43;;
18780;SDS011;9519;51.890;8.970;2022-10-31T23:45:52;18.83;;;11.80;;
18780;SDS011;9519;51.890;8.970;2022-10-31T23:50:54;20.27;;;11.10;;
18780;SDS011;9519;51.890;8.970;2022-10-31T23:55:56;21.13;;;12.90;;
